createdAt,value
2022-10-30T00:01:15.450Z,15.00
2022-10-30T00:03:44.601Z,14.97
2022-10-30T00:06:11.441Z,15.30
2022-10-30T00:08:38.348Z,14.10
2022-10-30T00:11:13.589Z,14.70
2022-10-30T00:13:44.770Z,16.50
2022-10-30T00:16:11.739Z,14.43
2022-10-30T00:18:41.988Z,14.97
2022-10-30T00:21:14.645Z,15.03
2022-10-30T00:23:52.979Z,15.77
2022-10-30T00:26:28.029Z,15.57
2022-10-30T00:28:56.271Z,15.07
2022-10-30T00:31:25.816Z,15.63
2022-10-30T00:33:58.717Z,15.23
2022-10-30T00:36:28.034Z,14.30
2022-10-30T00:38:54.909Z,12.90
2022-10-30T00:41:24.586Z,12.73
2022-10-30T00:43:52.154Z,14.30
2022-10-30T00:46:28.515Z,14.50
2022-10-30T00:49:01.947Z,14.40
2022-10-30T00:51:33.207Z,14.40
2022-10-30T00:54:03.237Z,15.33
2022-10-30T00:56:31.814Z,15.77
2022-10-30T00:59:17.914Z,14.50
2022-10-30T01:01:50.874Z,14.90
2022-10-30T01:04:18.152Z,14.60
2022-10-30T01:06:52.030Z,14.77
2022-10-30T01:09:25.158Z,14.60
2022-10-30T01:11:51.958Z,14.93
2022-10-30T01:14:22.080Z,15.27
2022-10-30T01:17:18.923Z,15.17
2022-10-30T01:20:23.059Z,14.57
2022-10-30T01:23:00.259Z,15.30
2022-10-30T01:26:06.636Z,13.73
2022-10-30T01:28:48.280Z,14.50
2022-10-30T01:31:40.924Z,16.20
2022-10-30T01:34:20.461Z,15.33
2022-10-30T01:37:05.122Z,14.60
2022-10-30T01:39:41.863Z,15.03
2022-10-30T01:42:48.559Z,14.20
2022-10-30T01:45:46.023Z,15.10
2022-10-30T01:48:15.494Z,15.00
2022-10-30T01:50:47.816Z,14.33
2022-10-30T01:53:44.271Z,13.20
2022-10-30T01:56:34.242Z,14.80
2022-10-30T01:59:39.012Z,13.23
2022-10-30T02:02:11.384Z,13.90
2022-10-30T02:04:41.270Z,12.90
2022-10-30T02:07:08.309Z,13.00
2022-10-30T02:09:35.498Z,15.10
2022-10-30T02:12:03.546Z,13.50
2022-10-30T02:14:44.087Z,13.87
2022-10-30T02:17:13.834Z,12.40
2022-10-30T02:19:40.649Z,13.40
2022-10-30T02:22:09.869Z,13.27
2022-10-30T02:24:36.784Z,13.10
2022-10-30T02:27:03.748Z,13.03
2022-10-30T02:29:35.219Z,12.57
2022-10-30T02:32:02.653Z,13.30
2022-10-30T02:34:32.543Z,12.30
2022-10-30T02:36:59.370Z,14.03
2022-10-30T02:39:26.220Z,12.47
2022-10-30T02:41:55.625Z,12.10
2022-10-30T02:44:22.476Z,12.00
2022-10-30T02:46:54.277Z,13.17
2022-10-30T02:49:23.166Z,12.30
2022-10-30T02:51:49.979Z,12.50
2022-10-30T02:54:16.859Z,12.63
2022-10-30T02:56:50.604Z,14.50
2022-10-30T02:59:20.598Z,12.50
2022-10-30T03:01:47.524Z,12.50
2022-10-30T03:04:16.644Z,13.33
2022-10-30T03:06:43.575Z,12.93
2022-10-30T03:09:12.993Z,12.43
2022-10-30T03:11:39.787Z,12.37
2022-10-30T03:14:08.843Z,11.73
2022-10-30T03:16:39.277Z,12.63
2022-10-30T03:19:06.123Z,11.60
2022-10-30T03:21:37.838Z,12.87
2022-10-30T03:24:07.445Z,12.40
2022-10-30T03:26:36.745Z,13.00
2022-10-30T03:29:03.956Z,13.10
2022-10-30T03:31:32.558Z,12.00
2022-10-30T03:34:01.914Z,12.30
2022-10-30T03:36:28.757Z,12.20
2022-10-30T03:38:56.530Z,12.40
2022-10-30T03:41:23.357Z,11.40
2022-10-30T03:43:54.706Z,12.37
2022-10-30T03:46:21.512Z,12.73
2022-10-30T03:48:51.736Z,12.30
2022-10-30T03:51:18.572Z,12.80
2022-10-30T03:53:45.403Z,13.50
2022-10-30T03:56:14.786Z,11.40
2022-10-30T03:58:41.582Z,11.70
2022-10-30T04:01:12.763Z,12.63
2022-10-30T04:03:39.769Z,11.63
2022-10-30T04:06:07.737Z,11.63
2022-10-30T04:08:34.537Z,11.73
2022-10-30T04:11:01.409Z,12.20
2022-10-30T04:13:28.309Z,11.40
2022-10-30T04:15:58.018Z,11.17
2022-10-30T04:18:26.161Z,12.27
2022-10-30T04:20:55.428Z,11.73
2022-10-30T04:23:22.773Z,11.60
2022-10-30T04:25:49.652Z,11.97
2022-10-30T04:28:17.077Z,11.97
2022-10-30T04:30:49.460Z,11.40
2022-10-30T04:33:16.271Z,13.40
2022-10-30T04:35:43.896Z,12.57
2022-10-30T04:38:14.153Z,13.10
2022-10-30T04:40:44.191Z,11.60
2022-10-30T04:43:12.329Z,12.20
2022-10-30T04:45:40.228Z,12.83
2022-10-30T04:48:20.226Z,12.50
2022-10-30T04:50:47.120Z,12.43
2022-10-30T04:53:19.644Z,11.43
2022-10-30T04:55:54.356Z,11.40
2022-10-30T04:58:23.716Z,11.43
2022-10-30T05:00:53.145Z,13.20
2022-10-30T05:03:26.842Z,10.77
2022-10-30T05:06:08.108Z,11.80
2022-10-30T05:08:37.472Z,10.70
2022-10-30T05:11:07.836Z,11.40
2022-10-30T05:13:34.660Z,10.63
2022-10-30T05:16:01.488Z,10.93
2022-10-30T05:18:28.310Z,10.13
2022-10-30T05:20:55.095Z,10.83
2022-10-30T05:23:21.951Z,10.30
2022-10-30T05:25:48.757Z,9.97
2022-10-30T05:28:16.232Z,11.23
2022-10-30T05:30:43.055Z,10.83
2022-10-30T05:33:12.236Z,10.70
2022-10-30T05:35:44.812Z,10.73
2022-10-30T05:38:12.545Z,11.43
2022-10-30T05:40:41.955Z,9.93
2022-10-30T05:43:11.314Z,10.87
2022-10-30T05:45:40.679Z,10.00
2022-10-30T05:48:07.968Z,9.20
2022-10-30T05:50:34.906Z,10.77
2022-10-30T05:53:04.779Z,9.50
2022-10-30T05:55:32.086Z,10.10
2022-10-30T05:58:07.300Z,10.47
2022-10-30T06:00:40.107Z,9.30
2022-10-30T06:03:10.786Z,10.10
2022-10-30T06:05:40.726Z,10.93
2022-10-30T06:08:08.214Z,10.90
2022-10-30T06:10:35.378Z,11.60
2022-10-30T06:13:05.204Z,9.90
2022-10-30T06:15:32.900Z,10.10
2022-10-30T06:18:00.768Z,9.50
2022-10-30T06:20:36.557Z,10.60
2022-10-30T06:23:06.993Z,10.47
2022-10-30T06:25:40.769Z,9.53
2022-10-30T06:28:10.809Z,10.00
2022-10-30T06:30:40.411Z,11.20
2022-10-30T06:33:09.130Z,10.23
2022-10-30T06:35:36.052Z,10.50
2022-10-30T06:38:03.639Z,10.93
2022-10-30T06:40:33.429Z,10.30
2022-10-30T06:43:00.581Z,10.57
2022-10-30T06:45:27.750Z,10.23
2022-10-30T06:47:57.064Z,9.77
2022-10-30T06:50:29.224Z,10.13
2022-10-30T06:52:58.224Z,10.20
2022-10-30T06:55:25.169Z,9.70
2022-10-30T06:57:57.461Z,10.77
2022-10-30T07:00:26.953Z,11.43
2022-10-30T07:03:04.597Z,10.87
2022-10-30T07:05:31.464Z,11.30
2022-10-30T07:07:58.859Z,10.93
2022-10-30T07:10:28.347Z,10.97
2022-10-30T07:12:57.374Z,10.33
2022-10-30T07:15:26.353Z,9.40
2022-10-30T07:18:02.943Z,9.37
2022-10-30T07:20:33.063Z,9.97
2022-10-30T07:23:00.693Z,8.77
2022-10-30T07:25:27.877Z,9.10
2022-10-30T07:27:56.017Z,9.33
2022-10-30T07:30:28.174Z,8.77
2022-10-30T07:33:05.950Z,8.13
2022-10-30T07:35:37.591Z,8.53
2022-10-30T07:38:08.969Z,8.23
2022-10-30T07:40:37.550Z,8.20
2022-10-30T07:43:06.039Z,8.67
2022-10-30T07:45:36.387Z,7.73
2022-10-30T07:48:04.054Z,7.90
2022-10-30T07:50:34.637Z,7.60
2022-10-30T07:53:02.485Z,7.60
2022-10-30T07:55:32.689Z,7.97
2022-10-30T07:58:03.888Z,7.00
2022-10-30T08:00:34.311Z,6.90
2022-10-30T08:03:02.888Z,7.37
2022-10-30T08:05:31.355Z,6.93
2022-10-30T08:07:59.817Z,6.60
2022-10-30T08:10:27.982Z,7.37
2022-10-30T08:12:57.528Z,8.10
2022-10-30T08:15:27.953Z,7.90
2022-10-30T08:17:57.509Z,6.50
2022-10-30T08:20:30.622Z,6.73
2022-10-30T08:23:01.819Z,7.20
2022-10-30T08:25:35.239Z,7.17
2022-10-30T08:28:12.808Z,6.10
2022-10-30T08:30:44.640Z,7.00
2022-10-30T08:33:20.738Z,8.17
2022-10-30T08:35:55.222Z,7.70
2022-10-30T08:38:25.711Z,7.20
2022-10-30T08:40:52.900Z,7.43
2022-10-30T08:43:20.633Z,7.07
2022-10-30T08:45:49.788Z,6.33
2022-10-30T08:48:16.897Z,6.17
2022-10-30T08:50:48.918Z,6.07
2022-10-30T08:53:16.095Z,6.80
2022-10-30T08:55:43.238Z,6.50
2022-10-30T08:58:10.292Z,6.77
2022-10-30T09:00:37.109Z,6.23
2022-10-30T09:03:04.478Z,7.00
2022-10-30T09:05:31.596Z,6.77
2022-10-30T09:08:01.316Z,6.70
2022-10-30T09:10:33.691Z,6.40
2022-10-30T09:13:02.457Z,7.40
2022-10-30T09:15:29.803Z,6.80
2022-10-30T09:18:08.648Z,6.43
2022-10-30T09:20:38.348Z,6.97
2022-10-30T09:23:07.807Z,5.90
2022-10-30T09:25:34.777Z,5.90
2022-10-30T09:28:03.739Z,6.30
2022-10-30T09:30:33.179Z,6.60
2022-10-30T09:33:02.738Z,6.30
2022-10-30T09:35:33.038Z,5.80
2022-10-30T09:38:00.012Z,6.10
2022-10-30T09:41:20.679Z,6.70
2022-10-30T09:43:59.607Z,7.17
2022-10-30T09:46:37.639Z,5.80
2022-10-30T09:49:20.691Z,6.50
2022-10-30T09:52:08.597Z,5.70
2022-10-30T09:54:50.495Z,6.30
2022-10-30T09:57:31.132Z,6.40
2022-10-30T10:00:04.260Z,6.00
2022-10-30T10:02:59.557Z,6.23
2022-10-30T10:05:43.491Z,5.83
2022-10-30T10:08:19.479Z,5.50
2022-10-30T10:10:53.311Z,5.93
2022-10-30T10:13:43.485Z,4.97
2022-10-30T10:16:29.388Z,5.87
2022-10-30T10:19:17.058Z,6.30
2022-10-30T10:22:07.851Z,5.60
2022-10-30T10:24:39.201Z,5.87
2022-10-30T10:27:46.635Z,4.57
2022-10-30T10:30:20.876Z,5.53
2022-10-30T10:33:20.479Z,6.13
2022-10-30T10:36:05.110Z,7.63
2022-10-30T10:39:02.273Z,6.10
2022-10-30T10:42:25.342Z,5.70
2022-10-30T10:45:12.911Z,6.00
2022-10-30T10:48:25.365Z,6.03
2022-10-30T10:51:09.829Z,5.47
2022-10-30T10:53:56.402Z,5.93
2022-10-30T10:56:34.220Z,5.10
2022-10-30T10:59:08.929Z,6.30
2022-10-30T11:01:43.223Z,5.60
2022-10-30T11:04:47.070Z,6.03
2022-10-30T11:07:29.652Z,4.77
2022-10-30T11:10:02.269Z,5.70
2022-10-30T11:12:40.153Z,4.90
2022-10-30T11:15:29.583Z,5.27
2022-10-30T11:18:16.729Z,5.40
2022-10-30T11:21:03.983Z,5.67
2022-10-30T11:23:40.229Z,5.43
2022-10-30T11:26:21.419Z,6.17
2022-10-30T11:28:58.457Z,5.50
2022-10-30T11:31:37.953Z,5.87
2022-10-30T11:34:34.533Z,6.93
2022-10-30T11:37:01.997Z,5.87
2022-10-30T11:39:34.016Z,6.27
2022-10-30T11:42:18.682Z,5.37
2022-10-30T11:44:51.494Z,5.67
2022-10-30T11:50:08.983Z,5.60
2022-10-30T11:52:41.268Z,5.73
2022-10-30T11:55:21.051Z,6.03
2022-10-30T11:57:55.962Z,5.20
2022-10-30T12:00:25.780Z,5.90
2022-10-30T12:03:05.755Z,5.63
2022-10-30T12:05:46.417Z,5.57
2022-10-30T12:08:19.221Z,5.43
2022-10-30T12:10:52.864Z,5.83
2022-10-30T12:13:25.278Z,5.47
2022-10-30T12:16:06.243Z,4.50
2022-10-30T12:18:33.872Z,6.00
2022-10-30T12:21:02.135Z,5.90
2022-10-30T12:23:32.676Z,6.27
2022-10-30T12:26:08.904Z,5.53
2022-10-30T12:28:36.464Z,5.47
2022-10-30T12:31:13.510Z,5.17
2022-10-30T12:33:52.736Z,5.33
2022-10-30T12:36:23.715Z,5.30
2022-10-30T12:38:58.389Z,5.70
2022-10-30T12:42:02.033Z,6.50
2022-10-30T12:45:08.853Z,5.70
2022-10-30T12:47:41.721Z,5.27
2022-10-30T12:50:17.513Z,6.40
2022-10-30T12:52:54.694Z,6.20
2022-10-30T12:55:27.837Z,5.70
2022-10-30T12:58:24.082Z,5.93
2022-10-30T13:01:35.052Z,6.30
2022-10-30T13:04:24.495Z,5.67
2022-10-30T13:07:09.781Z,5.93
2022-10-30T13:09:48.569Z,6.93
2022-10-30T13:12:23.890Z,6.67
2022-10-30T13:15:23.161Z,6.03
2022-10-30T13:17:50.685Z,5.73
2022-10-30T13:20:18.507Z,6.40
2022-10-30T13:22:56.512Z,6.10
2022-10-30T13:25:47.610Z,6.53
2022-10-30T13:28:26.044Z,6.40
2022-10-30T13:31:12.866Z,6.47
2022-10-30T13:33:54.581Z,6.60
2022-10-30T13:36:33.249Z,7.00
2022-10-30T13:39:39.038Z,6.50
2022-10-30T13:42:31.463Z,6.57
2022-10-30T13:45:23.210Z,6.90
2022-10-30T13:47:59.692Z,7.10
2022-10-30T13:51:03.417Z,6.17
2022-10-30T13:53:36.770Z,5.23
2022-10-30T13:56:15.157Z,6.93
2022-10-30T13:59:09.257Z,7.00
2022-10-30T14:02:17.386Z,8.20
2022-10-30T14:04:55.645Z,6.80
2022-10-30T14:08:06.342Z,6.50
2022-10-30T14:10:44.585Z,6.50
2022-10-30T14:13:26.987Z,6.17
2022-10-30T14:16:07.060Z,6.63
2022-10-30T14:18:47.153Z,6.80
2022-10-30T14:21:52.247Z,6.43
2022-10-30T14:24:28.775Z,7.40
2022-10-30T14:27:11.225Z,6.90
2022-10-30T14:29:51.679Z,7.63
2022-10-30T14:32:18.460Z,7.30
2022-10-30T14:34:51.063Z,6.80
2022-10-30T14:37:23.879Z,6.57
2022-10-30T14:39:51.889Z,6.90
2022-10-30T14:42:43.229Z,6.63
2022-10-30T14:45:33.317Z,6.90
2022-10-30T14:48:11.513Z,6.40
2022-10-30T14:51:41.499Z,6.77
2022-10-30T14:54:29.273Z,7.07
2022-10-30T14:56:56.239Z,7.90
2022-10-30T14:59:32.297Z,7.60
2022-10-30T15:02:16.507Z,8.87
2022-10-30T15:04:56.137Z,8.53
2022-10-30T15:07:49.369Z,8.63
2022-10-30T15:10:29.764Z,9.27
2022-10-30T15:13:21.793Z,9.30
2022-10-30T15:16:08.718Z,8.80
2022-10-30T15:18:35.664Z,9.90
2022-10-30T15:21:07.727Z,10.50
2022-10-30T15:23:37.236Z,8.20
2022-10-30T15:26:20.018Z,8.83
2022-10-30T15:28:52.719Z,10.47
2022-10-30T15:31:29.967Z,11.10
2022-10-30T15:33:59.908Z,9.20
2022-10-30T15:36:42.903Z,10.10
2022-10-30T15:39:16.220Z,9.90
2022-10-30T15:41:45.850Z,11.30
2022-10-30T15:44:19.184Z,12.77
2022-10-30T15:46:51.485Z,10.50
2022-10-30T15:49:35.062Z,10.30
2022-10-30T15:52:14.625Z,19.20
2022-10-30T15:54:49.098Z,20.00
2022-10-30T15:57:57.347Z,22.37
2022-10-30T16:00:31.401Z,21.83
2022-10-30T16:03:16.877Z,18.27
2022-10-30T16:05:48.225Z,26.07
2022-10-30T16:08:22.520Z,27.63
2022-10-30T16:10:52.877Z,17.37
2022-10-30T16:13:30.147Z,15.53
2022-10-30T16:15:57.340Z,33.43
2022-10-30T16:18:31.113Z,21.10
2022-10-30T16:21:06.559Z,38.47
2022-10-30T16:23:55.730Z,45.20
2022-10-30T16:26:33.718Z,37.47
2022-10-30T16:29:16.992Z,35.27
2022-10-30T16:31:49.993Z,42.90
2022-10-30T16:34:35.112Z,54.57
2022-10-30T16:37:07.170Z,39.70
2022-10-30T16:39:40.054Z,24.10
2022-10-30T16:42:07.536Z,25.30
2022-10-30T16:44:40.732Z,21.83
2022-10-30T16:47:16.705Z,20.03
2022-10-30T16:49:57.936Z,22.03
2022-10-30T16:52:37.964Z,21.40
2022-10-30T16:55:13.338Z,19.27
2022-10-30T16:57:45.990Z,21.13
2022-10-30T17:00:30.542Z,28.50
2022-10-30T17:03:10.958Z,20.97
2022-10-30T17:05:42.374Z,19.60
2022-10-30T17:08:43.044Z,20.33
2022-10-30T17:11:34.103Z,18.03
2022-10-30T17:14:06.826Z,20.27
2022-10-30T17:16:37.479Z,19.60
2022-10-30T17:19:32.230Z,18.07
2022-10-30T17:22:07.675Z,20.27
2022-10-30T17:24:37.800Z,17.33
2022-10-30T17:27:11.236Z,18.07
2022-10-30T17:29:37.977Z,17.53
2022-10-30T17:32:15.346Z,24.77
2022-10-30T17:34:44.288Z,30.67
2022-10-30T17:37:13.308Z,31.43
2022-10-30T17:39:40.285Z,25.30
2022-10-30T17:42:10.120Z,23.70
2022-10-30T17:44:37.229Z,22.57
2022-10-30T17:47:23.735Z,25.47
2022-10-30T17:49:50.661Z,19.20
2022-10-30T17:52:23.105Z,16.97
2022-10-30T17:54:52.153Z,15.83
2022-10-30T17:57:18.975Z,18.10
2022-10-30T17:59:45.846Z,18.50
2022-10-30T18:02:19.421Z,18.03
2022-10-30T18:04:47.692Z,18.47
2022-10-30T18:07:16.793Z,17.27
2022-10-30T18:09:44.491Z,19.60
2022-10-30T18:12:16.354Z,20.33
2022-10-30T18:14:45.498Z,18.50
2022-10-30T18:17:15.278Z,22.70
2022-10-30T18:19:42.096Z,20.40
2022-10-30T18:22:12.603Z,28.53
2022-10-30T18:24:39.455Z,24.53
2022-10-30T18:27:06.318Z,26.30
2022-10-30T18:29:33.159Z,30.30
2022-10-30T18:32:02.401Z,22.40
2022-10-30T18:34:32.372Z,17.63
2022-10-30T18:37:01.712Z,18.67
2022-10-30T18:39:30.721Z,21.80
2022-10-30T18:41:58.965Z,18.60
2022-10-30T18:44:25.765Z,18.87
2022-10-30T18:46:52.609Z,17.60
2022-10-30T18:49:24.406Z,19.07
2022-10-30T18:51:53.771Z,20.13
2022-10-30T18:54:23.061Z,17.60
2022-10-30T18:56:49.886Z,18.53
2022-10-30T18:59:16.678Z,34.67
2022-10-30T19:01:45.921Z,26.80
2022-10-30T19:04:15.682Z,24.73
2022-10-30T19:06:44.861Z,20.17
2022-10-30T19:09:11.682Z,18.40
2022-10-30T19:11:43.313Z,19.43
2022-10-30T19:14:15.881Z,19.83
2022-10-30T19:16:45.091Z,19.60
2022-10-30T19:19:14.860Z,21.07
2022-10-30T19:21:44.058Z,21.10
2022-10-30T19:24:14.955Z,21.77
2022-10-30T19:26:41.773Z,26.60
2022-10-30T19:29:08.759Z,26.23
2022-10-30T19:31:35.985Z,23.63
2022-10-30T19:34:03.406Z,21.50
2022-10-30T19:36:39.168Z,21.73
2022-10-30T19:39:24.157Z,20.40
2022-10-30T19:41:51.117Z,20.17
2022-10-30T19:44:20.543Z,18.33
2022-10-30T19:46:47.505Z,17.60
2022-10-30T19:49:23.544Z,16.10
2022-10-30T19:51:50.712Z,20.37
2022-10-30T19:54:19.831Z,18.53
2022-10-30T19:56:46.808Z,17.70
2022-10-30T19:59:15.246Z,20.10
2022-10-30T20:01:44.959Z,20.47
2022-10-30T20:04:12.688Z,22.17
2022-10-30T20:06:39.742Z,19.00
2022-10-30T20:09:12.634Z,19.87
2022-10-30T20:11:39.632Z,18.13
2022-10-30T20:14:09.000Z,19.13
2022-10-30T20:16:36.056Z,18.83
2022-10-30T20:19:25.093Z,17.50
2022-10-30T20:21:55.470Z,17.60
2022-10-30T20:24:25.863Z,19.10
2022-10-30T20:26:56.221Z,18.77
2022-10-30T20:29:24.465Z,17.67
2022-10-30T20:31:51.389Z,20.00
2022-10-30T20:34:23.260Z,18.73
2022-10-30T20:36:50.069Z,17.20
2022-10-30T20:39:17.145Z,19.57
2022-10-30T20:41:44.118Z,19.10
2022-10-30T20:44:12.614Z,19.10
2022-10-30T20:46:39.539Z,19.27
2022-10-30T20:49:17.072Z,16.77
2022-10-30T20:51:47.497Z,18.67
2022-10-30T20:54:14.908Z,18.27
2022-10-30T20:56:46.556Z,17.33
2022-10-30T20:59:15.942Z,16.73
2022-10-30T21:01:42.897Z,15.80
2022-10-30T21:04:12.126Z,16.00
2022-10-30T21:06:41.279Z,18.10
2022-10-30T21:09:08.289Z,18.07
2022-10-30T21:11:35.188Z,16.03
2022-10-30T21:14:02.170Z,18.00
2022-10-30T21:16:33.623Z,18.20
2022-10-30T21:19:03.574Z,16.63
2022-10-30T21:21:33.481Z,17.30
2022-10-30T21:24:00.318Z,16.43
2022-10-30T21:26:29.692Z,18.93
2022-10-30T21:28:58.613Z,16.90
2022-10-30T21:31:25.548Z,18.30
2022-10-30T21:33:52.578Z,17.03
2022-10-30T21:36:20.395Z,17.27
2022-10-30T21:38:49.873Z,17.37
2022-10-30T21:41:22.061Z,17.60
2022-10-30T21:43:54.126Z,18.20
2022-10-30T21:46:29.481Z,18.17
2022-10-30T21:48:58.959Z,17.77
2022-10-30T21:51:29.794Z,17.03
2022-10-30T21:54:01.790Z,18.33
2022-10-30T21:56:31.309Z,18.00
2022-10-30T21:59:00.354Z,18.90
2022-10-30T22:01:31.909Z,18.47
2022-10-30T22:04:03.313Z,17.70
2022-10-30T22:06:32.933Z,17.80
2022-10-30T22:09:04.915Z,18.57
2022-10-30T22:11:34.658Z,18.60
2022-10-30T22:14:03.665Z,19.60
2022-10-30T22:16:40.255Z,21.20
2022-10-30T22:19:10.139Z,21.40
2022-10-30T22:21:37.285Z,20.27
2022-10-30T22:24:07.025Z,19.93
2022-10-30T22:26:36.108Z,19.47
2022-10-30T22:29:03.296Z,18.93
2022-10-30T22:31:33.093Z,17.00
2022-10-30T22:34:01.663Z,18.90
2022-10-30T22:36:31.910Z,18.23
2022-10-30T22:39:01.378Z,16.20
2022-10-30T22:41:34.438Z,17.87
2022-10-30T22:44:13.291Z,16.90
2022-10-30T22:46:40.965Z,16.70
2022-10-30T22:49:10.780Z,18.40
2022-10-30T22:51:42.291Z,16.23
2022-10-30T22:54:13.096Z,17.40
2022-10-30T22:56:44.850Z,17.20
2022-10-30T22:59:14.613Z,18.20
2022-10-30T23:01:46.723Z,17.17
2022-10-30T23:04:16.143Z,17.63
2022-10-30T23:06:46.741Z,17.23
2022-10-30T23:09:22.257Z,17.63
2022-10-30T23:11:49.645Z,18.23
2022-10-30T23:14:16.693Z,17.23
2022-10-30T23:16:46.098Z,18.13
2022-10-30T23:19:13.025Z,17.23
2022-10-30T23:21:39.920Z,17.00
2022-10-30T23:24:07.418Z,17.40
2022-10-30T23:26:35.957Z,16.17
2022-10-30T23:29:03.897Z,16.80
2022-10-30T23:31:39.575Z,15.57
2022-10-30T23:34:10.467Z,15.73
2022-10-30T23:36:41.083Z,16.73
2022-10-30T23:39:19.680Z,16.73
2022-10-30T23:41:46.654Z,15.77
2022-10-30T23:44:17.941Z,16.63
2022-10-30T23:46:44.924Z,16.43
2022-10-30T23:49:14.252Z,14.60
2022-10-30T23:51:41.222Z,14.73
2022-10-30T23:54:08.288Z,15.43
2022-10-30T23:56:35.160Z,15.17
2022-10-30T23:59:04.127Z,16.30
